Pagrindinis puslapis
METAR-TAF:

METAR-TAF

Oro uostai :

Aruba, Aruba

platuma: 12-30N, ilguma: 070-01W, Aukštis: 18 m

Dabartinis oras

Ataskaita buvo paskelbta 1 valandą ir 12 minutes, ne 23:00 UTC
Vėjas 22 kt iš Rytų
Temperatūra 27°C
Drėgmė 74%
Slėgis 1011 hPa
Matomumas 10 km arba daugiau
Mažai debesys ne aukštis 1800 ft

METAR: TNCA 212300Z 09022KT 9999 FEW018 27/22 Q1011 NOSIG

Laikas: 20:12 (00:12 UTC)

Prognozė

Ataskaita buvo paskelbta 12 minutes, ne 00:00 UTC
Prognozė galioja nuo 22 metu 00 UTC su 22 metu 24 UTC
Vėjas 19 kt iš Rytų
Matomumas 10 km arba daugiau
Mažai debesys ne aukštis 1800 ft
Laikinai
nuo 22 metu 07 UTC su 22 metu 15 UTC
Su prošvaistėmis ne aukštis 1500 ft

TAF: TNCA 220000Z 2200/2224 09019KT 9999 FEW018 TEMPO 2207/2215 BKN015

Orai ataskaitas ir orų prognozės (METAR, TAF).

turimą stotys yra geltonos ir raudonos taškus žemėlapyje.

Perkelti pele per norėdami pamatyti stoties vardą.

Tada spustelėkite, norėdami matyti oro stebėjimo ir prognozės.

Norėdami pakeisti žemėlapį: spustelėkite ant žalios mygtukų su juodo kryžiaus žemyn,; žalią mygtuką su brūkšneliu, jei norite nutolinti; arba žalių rodyklių gretimoms žemėlapius.


METAR-TAF: